createdAt,value
2018-01-06T00:01:02.677Z,25.07
2018-01-06T00:03:31.670Z,18.33
2018-01-06T00:05:59.884Z,18.57
2018-01-06T00:08:28.093Z,21.30
2018-01-06T00:10:56.306Z,27.47
2018-01-06T00:13:24.534Z,21.57
2018-01-06T00:15:52.733Z,24.03
2018-01-06T00:18:20.977Z,19.83
2018-01-06T00:20:49.193Z,14.33
2018-01-06T00:23:18.182Z,17.00
2018-01-06T00:25:47.189Z,16.53
2018-01-06T00:28:15.451Z,18.17
2018-01-06T00:30:44.560Z,17.53
2018-01-06T00:33:13.551Z,18.90
2018-01-06T00:35:43.891Z,19.37
2018-01-06T00:38:12.445Z,19.80
2018-01-06T00:40:41.434Z,19.40
2018-01-06T00:43:10.429Z,22.80
2018-01-06T00:45:39.426Z,22.13
2018-01-06T00:48:07.625Z,21.30
2018-01-06T00:50:35.909Z,20.90
2018-01-06T00:53:04.130Z,26.30
2018-01-06T00:55:32.414Z,22.43
2018-01-06T00:58:01.445Z,29.60
2018-01-06T01:00:29.683Z,21.20
2018-01-06T01:02:59.431Z,35.50
2018-01-06T01:05:27.689Z,23.03
2018-01-06T01:07:55.914Z,22.80
2018-01-06T01:10:24.246Z,24.13
2018-01-06T01:12:52.471Z,25.20
2018-01-06T01:15:21.491Z,16.30
2018-01-06T01:17:50.477Z,22.97
2018-01-06T01:20:18.693Z,25.13
2018-01-06T01:22:47.310Z,17.50
2018-01-06T01:25:16.622Z,22.87
2018-01-06T01:27:44.849Z,20.63
2018-01-06T01:30:13.046Z,20.00
2018-01-06T01:32:41.274Z,23.43
2018-01-06T01:35:10.258Z,19.17
2018-01-06T01:37:38.478Z,21.70
2018-01-06T01:40:06.687Z,21.03
2018-01-06T01:42:36.401Z,20.10
2018-01-06T01:45:04.630Z,18.60
2018-01-06T01:47:33.073Z,20.37
2018-01-06T01:50:02.049Z,22.00
2018-01-06T01:52:30.265Z,22.00
2018-01-06T01:54:58.514Z,18.23
2018-01-06T01:57:26.719Z,22.27
2018-01-06T01:59:54.951Z,21.47
2018-01-06T02:02:23.165Z,20.27
2018-01-06T02:04:51.398Z,20.60
2018-01-06T02:07:19.606Z,19.30
2018-01-06T02:09:47.870Z,22.80
2018-01-06T02:12:16.842Z,19.47
2018-01-06T02:14:45.053Z,17.80
2018-01-06T02:17:13.324Z,22.13
2018-01-06T02:19:41.520Z,22.53
2018-01-06T02:22:09.756Z,18.30
2018-01-06T02:24:37.997Z,18.20
2018-01-06T02:27:06.241Z,18.70
2018-01-06T02:29:34.455Z,17.77
2018-01-06T02:32:02.673Z,20.87
2018-01-06T02:34:30.885Z,20.50
2018-01-06T02:36:59.094Z,22.90
2018-01-06T02:39:28.396Z,21.67
2018-01-06T02:41:56.601Z,19.30
2018-01-06T02:44:24.813Z,18.67
2018-01-06T02:46:53.060Z,24.43
2018-01-06T02:49:21.296Z,24.90
2018-01-06T02:51:50.270Z,22.27
2018-01-06T02:54:19.264Z,16.23
2018-01-06T02:56:47.477Z,16.77
2018-01-06T02:59:15.693Z,21.70
2018-01-06T03:01:45.438Z,22.17
2018-01-06T03:04:14.434Z,21.50
2018-01-06T03:06:43.432Z,23.40
2018-01-06T03:09:11.661Z,23.23
2018-01-06T03:11:39.876Z,20.03
2018-01-06T03:14:08.105Z,20.30
2018-01-06T03:16:36.334Z,16.40
2018-01-06T03:19:04.604Z,15.00
2018-01-06T03:21:33.172Z,15.67
2018-01-06T03:24:01.408Z,17.80
2018-01-06T03:26:29.620Z,20.53
2018-01-06T03:28:58.602Z,18.50
2018-01-06T03:31:27.585Z,18.63
2018-01-06T03:33:55.833Z,20.37
2018-01-06T03:36:24.057Z,13.83
2018-01-06T03:38:53.288Z,19.77
2018-01-06T03:41:21.565Z,19.60
2018-01-06T03:43:49.807Z,16.97
2018-01-06T03:46:18.806Z,14.80
2018-01-06T03:48:47.775Z,18.17
2018-01-06T03:51:15.985Z,21.70
2018-01-06T03:53:44.542Z,20.50
2018-01-06T03:56:13.526Z,22.57
2018-01-06T03:58:41.738Z,24.93
2018-01-06T04:01:09.965Z,22.77
2018-01-06T04:03:38.174Z,19.57
2018-01-06T04:06:06.387Z,19.33
2018-01-06T04:08:34.605Z,19.43
2018-01-06T04:11:03.596Z,21.77
2018-01-06T04:13:32.584Z,23.70
2018-01-06T04:16:00.785Z,23.77
2018-01-06T04:18:29.345Z,34.00
2018-01-06T04:20:57.571Z,41.80
2018-01-06T04:23:25.797Z,36.30
2018-01-06T04:25:54.174Z,27.93
2018-01-06T04:28:23.469Z,28.33
2018-01-06T04:30:51.748Z,24.70
2018-01-06T04:33:19.909Z,23.40
2018-01-06T04:35:48.398Z,23.27
2018-01-06T04:38:16.633Z,27.77
2018-01-06T04:40:44.846Z,20.90
2018-01-06T04:43:13.854Z,27.43
2018-01-06T04:45:42.821Z,20.97
2018-01-06T04:48:11.417Z,26.90
2018-01-06T04:50:40.412Z,27.30
2018-01-06T04:53:09.435Z,26.27
2018-01-06T04:55:37.661Z,24.20
2018-01-06T04:58:05.890Z,24.17
2018-01-06T05:00:34.113Z,19.30
2018-01-06T05:03:02.315Z,18.60
2018-01-06T05:05:31.597Z,17.23
2018-01-06T05:08:00.574Z,18.53
2018-01-06T05:10:28.884Z,21.70
2018-01-06T05:12:57.881Z,20.43
2018-01-06T05:15:26.171Z,21.40
2018-01-06T05:17:54.615Z,19.93
2018-01-06T05:20:23.597Z,23.47
2018-01-06T05:22:51.893Z,24.40
2018-01-06T05:25:20.385Z,29.40
2018-01-06T05:27:48.666Z,24.17
2018-01-06T05:30:16.893Z,27.40
2018-01-06T05:32:45.115Z,26.60
2018-01-06T05:35:13.357Z,21.77
2018-01-06T05:37:42.341Z,29.43
2018-01-06T05:40:10.547Z,24.87
2018-01-06T05:42:38.783Z,27.60
2018-01-06T05:45:07.002Z,31.97
2018-01-06T05:47:35.954Z,38.10
2018-01-06T05:50:04.181Z,28.50
2018-01-06T05:52:32.385Z,29.90
2018-01-06T05:55:01.412Z,27.00
2018-01-06T05:57:29.710Z,24.50
2018-01-06T05:59:57.913Z,27.83
2018-01-06T06:02:26.138Z,43.23
2018-01-06T06:04:54.361Z,27.77
2018-01-06T06:07:22.571Z,29.73
2018-01-06T06:09:50.780Z,34.03
2018-01-06T06:12:19.010Z,32.20
2018-01-06T06:14:47.513Z,46.90
2018-01-06T06:17:15.742Z,33.50
2018-01-06T06:19:43.989Z,30.53
2018-01-06T06:22:12.193Z,44.50
2018-01-06T06:24:40.433Z,41.20
2018-01-06T06:27:08.811Z,32.00
2018-01-06T06:29:37.053Z,37.97
2018-01-06T06:32:05.272Z,40.60
2018-01-06T06:34:33.477Z,30.37
2018-01-06T06:37:01.734Z,30.67
2018-01-06T06:39:29.942Z,29.90
2018-01-06T06:41:58.178Z,33.63
2018-01-06T06:44:26.529Z,40.10
2018-01-06T06:46:54.754Z,33.90
2018-01-06T06:49:22.964Z,22.20
2018-01-06T06:51:51.201Z,20.73
2018-01-06T06:54:20.247Z,30.30
2018-01-06T06:56:49.228Z,26.63
2018-01-06T06:59:18.234Z,34.07
2018-01-06T07:01:47.513Z,23.87
2018-01-06T07:04:16.521Z,29.77
2018-01-06T07:06:45.501Z,30.57
2018-01-06T07:09:14.466Z,36.50
2018-01-06T07:11:43.490Z,27.60
2018-01-06T07:14:12.469Z,34.03
2018-01-06T07:16:41.469Z,32.93
2018-01-06T07:19:10.449Z,22.90
2018-01-06T07:21:39.475Z,23.40
2018-01-06T07:24:07.934Z,22.60
2018-01-06T07:26:36.917Z,20.10
2018-01-06T07:29:05.146Z,19.50
2018-01-06T07:31:33.370Z,23.63
2018-01-06T07:34:02.378Z,22.13
2018-01-06T07:36:31.361Z,27.80
2018-01-06T07:39:00.358Z,22.70
2018-01-06T07:41:29.365Z,24.33
2018-01-06T07:43:57.581Z,22.07
2018-01-06T07:46:26.730Z,29.13
2018-01-06T07:48:55.725Z,24.70
2018-01-06T07:51:23.946Z,33.73
2018-01-06T07:53:52.205Z,34.97
2018-01-06T07:56:20.453Z,37.90
2018-01-06T07:58:48.662Z,34.53
2018-01-06T08:01:16.894Z,27.93
2018-01-06T08:03:45.133Z,31.17
2018-01-06T08:06:13.370Z,29.07
2018-01-06T08:08:41.630Z,21.00
2018-01-06T08:11:09.860Z,28.33
2018-01-06T08:13:38.078Z,21.47
2018-01-06T08:16:06.316Z,25.40
2018-01-06T08:18:34.523Z,23.30
2018-01-06T08:21:03.605Z,19.53
2018-01-06T08:23:32.609Z,22.93
2018-01-06T08:26:00.821Z,19.70
2018-01-06T08:28:29.346Z,31.23
2018-01-06T08:30:58.561Z,29.80
2018-01-06T08:33:26.773Z,29.53
2018-01-06T08:35:55.035Z,24.83
2018-01-06T08:38:23.259Z,24.67
2018-01-06T08:40:52.274Z,27.50
2018-01-06T08:43:20.489Z,25.80
2018-01-06T08:45:48.725Z,28.27
2018-01-06T08:48:17.713Z,26.80
2018-01-06T08:50:46.690Z,30.10
2018-01-06T08:53:14.949Z,31.77
2018-01-06T08:55:43.169Z,34.97
2018-01-06T08:58:11.418Z,34.77
2018-01-06T09:00:40.419Z,35.30
2018-01-06T09:03:08.611Z,40.10
2018-01-06T09:05:36.841Z,31.10
2018-01-06T09:08:05.061Z,34.93
2018-01-06T09:10:33.298Z,33.10
2018-01-06T09:13:02.297Z,34.83
2018-01-06T09:15:30.586Z,36.80
2018-01-06T09:17:59.926Z,33.87
2018-01-06T09:20:28.254Z,33.40
2018-01-06T09:22:57.574Z,30.10
2018-01-06T09:25:26.551Z,34.00
2018-01-06T09:27:55.542Z,32.40
2018-01-06T09:30:24.517Z,34.30
2018-01-06T09:32:53.522Z,28.17
2018-01-06T09:35:21.731Z,23.73
2018-01-06T09:37:49.962Z,29.97
2018-01-06T09:40:18.201Z,30.13
2018-01-06T09:42:46.420Z,27.67
2018-01-06T09:45:15.393Z,31.70
2018-01-06T09:47:43.618Z,32.03
2018-01-06T09:50:12.181Z,29.50
2018-01-06T09:52:40.452Z,34.30
2018-01-06T09:55:08.642Z,24.97
2018-01-06T09:57:36.874Z,24.47
2018-01-06T10:00:05.094Z,24.83
2018-01-06T10:02:33.322Z,27.90
2018-01-06T10:05:01.545Z,29.33
2018-01-06T10:07:30.518Z,27.20
2018-01-06T10:09:59.503Z,21.70
2018-01-06T10:12:28.478Z,20.40
2018-01-06T10:14:56.697Z,27.47
2018-01-06T10:17:24.905Z,23.27
2018-01-06T10:19:53.158Z,26.20
2018-01-06T10:22:21.358Z,26.23
2018-01-06T10:24:49.582Z,24.53
2018-01-06T10:27:18.554Z,22.83
2018-01-06T10:29:46.773Z,21.10
2018-01-06T10:32:14.997Z,25.93
2018-01-06T10:34:43.226Z,23.10
2018-01-06T10:37:11.449Z,21.33
2018-01-06T10:39:40.437Z,21.00
2018-01-06T10:42:08.709Z,23.27
2018-01-06T10:44:37.705Z,23.93
2018-01-06T10:47:05.930Z,21.77
2018-01-06T10:49:34.162Z,28.10
2018-01-06T10:52:03.157Z,20.27
2018-01-06T10:54:32.353Z,19.90
2018-01-06T10:57:01.713Z,24.70
2018-01-06T10:59:29.952Z,24.67
2018-01-06T11:02:03.831Z,22.50
2018-01-06T11:04:32.080Z,23.00
2018-01-06T11:07:00.301Z,20.83
2018-01-06T11:09:29.585Z,24.80
2018-01-06T11:11:58.570Z,28.33
2018-01-06T11:14:27.581Z,31.40
2018-01-06T11:16:55.893Z,28.53
2018-01-06T11:19:24.109Z,27.53
2018-01-06T11:21:52.321Z,32.30
2018-01-06T11:24:20.554Z,28.67
2018-01-06T11:26:48.765Z,29.53
2018-01-06T11:29:17.017Z,31.53
2018-01-06T11:31:45.225Z,26.07
2018-01-06T11:34:13.457Z,25.97
2018-01-06T11:36:41.662Z,27.40
2018-01-06T11:39:09.882Z,29.10
2018-01-06T11:41:38.093Z,24.10
2018-01-06T11:44:07.069Z,29.30
2018-01-06T11:46:35.289Z,22.97
2018-01-06T11:49:03.506Z,25.17
2018-01-06T11:51:31.729Z,26.70
2018-01-06T11:53:59.938Z,25.07
2018-01-06T11:56:28.162Z,23.07
2018-01-06T11:58:57.133Z,24.10
2018-01-06T12:01:25.361Z,27.20
2018-01-06T12:03:53.809Z,25.30
2018-01-06T12:06:23.014Z,29.80
2018-01-06T12:08:51.239Z,24.93
2018-01-06T12:11:19.458Z,24.70
2018-01-06T12:13:48.437Z,24.07
2018-01-06T12:16:17.446Z,24.77
2018-01-06T12:18:45.680Z,22.87
2018-01-06T12:21:13.885Z,21.43
2018-01-06T12:23:42.871Z,19.53
2018-01-06T12:26:11.081Z,19.17
2018-01-06T12:28:39.298Z,22.37
2018-01-06T12:31:07.506Z,17.20
2018-01-06T12:33:35.742Z,19.20
2018-01-06T12:36:03.961Z,17.50
2018-01-06T12:38:32.953Z,19.27
2018-01-06T12:41:01.923Z,16.00
2018-01-06T12:43:30.143Z,14.63
2018-01-06T12:45:58.361Z,14.80
2018-01-06T12:48:26.573Z,13.67
2018-01-06T12:50:54.785Z,16.73
2018-01-06T12:53:23.035Z,16.77
2018-01-06T12:55:51.273Z,19.97
2018-01-06T12:58:20.253Z,17.83
2018-01-06T13:00:49.249Z,19.40
2018-01-06T13:03:17.490Z,17.63
2018-01-06T13:05:45.717Z,20.67
2018-01-06T13:08:13.937Z,22.60
2018-01-06T13:10:42.383Z,19.40
2018-01-06T13:13:10.597Z,16.10
2018-01-06T13:15:38.844Z,18.30
2018-01-06T13:18:07.050Z,21.60
2018-01-06T13:20:35.273Z,24.20
2018-01-06T13:23:04.276Z,23.70
2018-01-06T13:25:33.549Z,20.33
2018-01-06T13:28:02.533Z,22.70
2018-01-06T13:30:30.979Z,23.30
2018-01-06T13:32:59.181Z,18.83
2018-01-06T13:35:27.398Z,20.90
2018-01-06T13:37:55.622Z,18.60
2018-01-06T13:40:23.839Z,16.50
2018-01-06T13:42:52.083Z,19.37
2018-01-06T13:45:20.286Z,20.37
2018-01-06T13:47:49.279Z,17.63
2018-01-06T13:50:17.509Z,19.93
2018-01-06T13:52:45.751Z,21.17
2018-01-06T13:55:13.978Z,17.53
2018-01-06T13:57:42.974Z,22.30
2018-01-06T14:00:11.191Z,19.90
2018-01-06T14:02:39.457Z,22.50
2018-01-06T14:05:07.696Z,22.30
2018-01-06T14:07:36.698Z,19.73
2018-01-06T14:10:05.682Z,17.97
2018-01-06T14:12:34.670Z,24.07
2018-01-06T14:15:02.893Z,23.07
2018-01-06T14:17:31.111Z,20.63
2018-01-06T14:19:59.342Z,17.40
2018-01-06T14:22:27.549Z,21.87
2018-01-06T14:24:55.773Z,23.73
2018-01-06T14:27:23.987Z,27.93
2018-01-06T14:29:52.218Z,29.03
2018-01-06T14:32:20.681Z,26.20
2018-01-06T14:34:48.905Z,25.50
2018-01-06T14:37:17.149Z,22.70
2018-01-06T14:39:46.123Z,24.40
2018-01-06T14:42:14.362Z,23.10
2018-01-06T14:44:42.582Z,29.03
2018-01-06T14:47:11.570Z,23.73
2018-01-06T14:49:40.563Z,22.87
2018-01-06T14:52:08.790Z,30.17
2018-01-06T14:54:37.051Z,34.90
2018-01-06T14:57:05.277Z,27.77
2018-01-06T14:59:34.266Z,30.60
2018-01-06T15:02:02.472Z,30.03
2018-01-06T15:04:30.689Z,28.70
2018-01-06T15:06:58.910Z,29.90
2018-01-06T15:09:27.901Z,27.40
2018-01-06T15:11:56.121Z,25.87
2018-01-06T15:14:24.365Z,24.50
2018-01-06T15:16:52.564Z,28.70
2018-01-06T15:19:20.789Z,28.90
2018-01-06T15:21:49.772Z,25.13
2018-01-06T15:24:17.993Z,25.97
2018-01-06T15:26:46.202Z,30.63
2018-01-06T15:29:14.438Z,25.10
2018-01-06T15:31:42.661Z,24.40
2018-01-06T15:34:11.953Z,26.13
2018-01-06T15:36:40.189Z,29.83
2018-01-06T15:39:08.402Z,33.23
2018-01-06T15:41:36.619Z,33.17
2018-01-06T15:44:04.841Z,33.73
2018-01-06T15:46:33.351Z,28.43
2018-01-06T15:49:01.562Z,20.13
2018-01-06T15:51:29.781Z,27.73
2018-01-06T15:53:57.989Z,30.13
2018-01-06T15:56:26.978Z,26.73
2018-01-06T15:58:55.949Z,25.07
2018-01-06T16:01:24.976Z,26.07
2018-01-06T16:03:53.429Z,27.87
2018-01-06T16:06:21.640Z,25.13
2018-01-06T16:08:49.865Z,27.20
2018-01-06T16:11:18.857Z,24.17
2018-01-06T16:13:47.863Z,28.00
2018-01-06T16:16:16.842Z,24.33
2018-01-06T16:18:45.081Z,27.13
2018-01-06T16:21:13.321Z,31.33
2018-01-06T16:23:41.566Z,33.43
2018-01-06T16:26:10.058Z,30.30
2018-01-06T16:28:39.037Z,26.90
2018-01-06T16:31:08.037Z,22.33
2018-01-06T16:33:37.030Z,26.70
2018-01-06T16:36:05.293Z,24.07
2018-01-06T16:38:33.476Z,27.43
2018-01-06T16:41:01.706Z,30.33
2018-01-06T16:43:29.916Z,26.90
2018-01-06T16:45:58.130Z,23.30
2018-01-06T16:48:26.341Z,23.83
2018-01-06T16:50:54.581Z,26.27
2018-01-06T16:53:22.793Z,22.63
2018-01-06T16:55:51.017Z,25.57
2018-01-06T16:58:19.269Z,26.50
2018-01-06T17:00:47.507Z,23.27
2018-01-06T17:03:16.037Z,21.97
2018-01-06T17:05:45.014Z,26.83
2018-01-06T17:08:13.234Z,25.47
2018-01-06T17:10:41.441Z,26.27
2018-01-06T17:13:09.658Z,24.80
2018-01-06T17:15:38.633Z,23.10
2018-01-06T17:18:06.869Z,22.27
2018-01-06T17:20:35.506Z,25.03
2018-01-06T17:23:04.520Z,27.60
2018-01-06T17:25:33.081Z,28.87
2018-01-06T17:28:02.045Z,26.17
2018-01-06T17:30:30.279Z,25.90
2018-01-06T17:32:58.489Z,28.70
2018-01-06T17:35:26.722Z,29.70
2018-01-06T17:37:54.937Z,28.67
2018-01-06T17:40:23.185Z,23.70
2018-01-06T17:42:51.389Z,23.47
2018-01-06T17:45:19.821Z,25.67
2018-01-06T17:47:48.030Z,29.13
2018-01-06T17:50:16.257Z,25.73
2018-01-06T17:52:44.490Z,23.80
2018-01-06T17:55:12.998Z,28.10
2018-01-06T17:57:41.993Z,25.47
2018-01-06T18:00:10.969Z,27.63
2018-01-06T18:02:39.190Z,25.67
2018-01-06T18:05:07.403Z,29.27
2018-01-06T18:07:35.622Z,27.17
2018-01-06T18:10:04.597Z,24.60
2018-01-06T18:12:32.829Z,22.67
2018-01-06T18:15:01.048Z,23.67
2018-01-06T18:17:29.268Z,30.37
2018-01-06T18:19:57.484Z,30.43
2018-01-06T18:22:25.697Z,29.60
2018-01-06T18:24:53.933Z,31.70
2018-01-06T18:27:22.148Z,29.00
2018-01-06T18:29:50.354Z,27.37
2018-01-06T18:32:18.569Z,27.53
2018-01-06T18:34:47.583Z,27.93
2018-01-06T18:37:15.810Z,25.93
2018-01-06T18:39:44.021Z,29.03
2018-01-06T18:42:12.245Z,30.20
2018-01-06T18:44:40.865Z,25.60
2018-01-06T18:47:09.124Z,28.07
2018-01-06T18:49:38.133Z,32.50
2018-01-06T18:52:07.133Z,36.10
2018-01-06T18:54:36.121Z,34.60
2018-01-06T18:57:05.090Z,34.00
2018-01-06T18:59:33.400Z,31.93
2018-01-06T19:02:01.561Z,32.00
2018-01-06T19:04:30.051Z,35.00
2018-01-06T19:06:59.050Z,31.67
2018-01-06T19:09:27.291Z,28.90
2018-01-06T19:11:55.497Z,57.77
2018-01-06T19:14:23.730Z,32.27
2018-01-06T19:16:51.946Z,32.17
2018-01-06T19:19:20.923Z,25.20
2018-01-06T19:21:49.918Z,30.80
2018-01-06T19:24:18.894Z,30.13
2018-01-06T19:26:47.106Z,33.60
2018-01-06T19:29:15.322Z,32.87
2018-01-06T19:31:44.294Z,30.53
2018-01-06T19:34:12.574Z,28.13
2018-01-06T19:36:41.530Z,33.67
2018-01-06T19:39:10.511Z,33.07
2018-01-06T19:41:39.499Z,33.63
2018-01-06T19:44:07.725Z,27.07
2018-01-06T19:46:35.994Z,28.40
2018-01-06T19:49:04.173Z,29.43
2018-01-06T19:51:32.390Z,26.60
2018-01-06T19:54:00.614Z,31.13
2018-01-06T19:56:28.830Z,26.93
2018-01-06T19:58:57.045Z,25.30
2018-01-06T20:01:25.257Z,22.90
2018-01-06T20:03:53.513Z,23.77
2018-01-06T20:06:21.746Z,24.43
2018-01-06T20:08:49.985Z,24.23
2018-01-06T20:11:18.194Z,22.53
2018-01-06T20:13:47.233Z,23.77
2018-01-06T20:16:15.413Z,22.77
2018-01-06T20:18:44.561Z,23.80
2018-01-06T20:21:13.541Z,24.10
2018-01-06T20:23:42.548Z,22.17
2018-01-06T20:26:11.525Z,22.80
2018-01-06T20:28:40.520Z,22.90
2018-01-06T20:31:09.528Z,22.70
2018-01-06T20:33:37.757Z,23.27
2018-01-06T20:36:06.069Z,24.43
2018-01-06T20:38:34.246Z,22.43
2018-01-06T20:41:02.498Z,21.93
2018-01-06T20:43:30.705Z,22.63
2018-01-06T20:45:58.933Z,23.07
2018-01-06T20:48:27.154Z,21.17
2018-01-06T20:50:56.125Z,20.40
2018-01-06T20:53:25.157Z,19.27
2018-01-06T20:55:54.106Z,20.30
2018-01-06T20:58:23.110Z,17.10
2018-01-06T21:00:52.098Z,20.53
2018-01-06T21:03:21.093Z,21.40
2018-01-06T21:05:50.069Z,21.07
2018-01-06T21:08:19.105Z,20.10
2018-01-06T21:10:47.326Z,19.20
2018-01-06T21:13:15.755Z,18.37
2018-01-06T21:15:44.725Z,18.03
2018-01-06T21:18:13.725Z,21.10
2018-01-06T21:20:41.938Z,19.30
2018-01-06T21:23:10.146Z,20.10
2018-01-06T21:25:38.369Z,16.50
2018-01-06T21:28:06.814Z,18.77
2018-01-06T21:30:35.041Z,17.97
2018-01-06T21:33:03.245Z,18.17
2018-01-06T21:35:31.461Z,18.03
2018-01-06T21:37:59.658Z,18.17
2018-01-06T21:40:28.194Z,20.60
2018-01-06T21:42:57.193Z,19.30
2018-01-06T21:45:26.186Z,19.17
2018-01-06T21:47:54.393Z,18.87
2018-01-06T21:50:22.602Z,17.40
2018-01-06T21:52:50.865Z,17.67
2018-01-06T21:55:19.045Z,21.27
2018-01-06T21:57:48.071Z,17.13
2018-01-06T22:00:16.269Z,18.50
2018-01-06T22:02:44.499Z,15.90
2018-01-06T22:05:12.701Z,17.83
2018-01-06T22:07:40.940Z,21.23
2018-01-06T22:10:09.156Z,21.63
2018-01-06T22:12:37.390Z,18.30
2018-01-06T22:15:05.604Z,14.70
2018-01-06T22:17:34.890Z,14.83
2018-01-06T22:20:03.986Z,16.40
2018-01-06T22:22:32.960Z,14.10
2018-01-06T22:25:01.962Z,17.13
2018-01-06T22:27:30.166Z,21.03
2018-01-06T22:29:58.379Z,17.43
2018-01-06T22:32:26.598Z,16.40
2018-01-06T22:34:55.604Z,17.77
2018-01-06T22:37:23.817Z,20.73
2018-01-06T22:39:52.045Z,22.13
2018-01-06T22:42:21.333Z,16.10
2018-01-06T22:44:49.563Z,16.03
2018-01-06T22:47:18.584Z,17.87
2018-01-06T22:49:47.590Z,15.97
2018-01-06T22:52:16.890Z,18.97
2018-01-06T22:54:45.988Z,17.00
2018-01-06T22:57:14.146Z,18.50
2018-01-06T22:59:42.353Z,15.50
2018-01-06T23:02:10.620Z,19.83
2018-01-06T23:04:38.794Z,19.73
2018-01-06T23:07:07.777Z,21.60
2018-01-06T23:09:36.014Z,21.57
2018-01-06T23:12:04.266Z,19.90
2018-01-06T23:14:32.480Z,18.93
2018-01-06T23:17:00.693Z,19.10
2018-01-06T23:19:28.914Z,17.77
2018-01-06T23:21:57.129Z,17.63
2018-01-06T23:24:26.106Z,15.60
2018-01-06T23:26:55.102Z,20.90
2018-01-06T23:29:24.082Z,18.40
2018-01-06T23:31:53.118Z,18.00
2018-01-06T23:34:21.350Z,21.97
2018-01-06T23:36:49.569Z,25.23
2018-01-06T23:39:17.809Z,22.40
2018-01-06T23:41:46.013Z,19.43
2018-01-06T23:44:14.467Z,18.63
2018-01-06T23:46:42.946Z,15.10
2018-01-06T23:49:11.941Z,13.60
2018-01-06T23:51:40.925Z,16.20
2018-01-06T23:54:09.938Z,15.10
2018-01-06T23:56:38.905Z,12.20
2018-01-06T23:59:07.126Z,11.30
